createdAt,value
2019-01-30T00:00:40.911Z,5.20
2019-01-30T00:03:11.839Z,1.00
2019-01-30T00:05:41.428Z,3.60
2019-01-30T00:08:11.360Z,3.00
2019-01-30T00:10:41.271Z,4.00
2019-01-30T00:13:12.843Z,1.40
2019-01-30T00:15:42.633Z,6.00
2019-01-30T00:18:12.651Z,4.00
2019-01-30T00:20:42.403Z,6.60
2019-01-30T00:23:12.076Z,1.80
2019-01-30T00:25:42.395Z,5.60
2019-01-30T00:28:13.736Z,4.00
2019-01-30T00:30:43.256Z,3.40
2019-01-30T00:33:15.381Z,4.40
2019-01-30T00:35:45.640Z,3.80
2019-01-30T00:38:15.659Z,4.00
2019-01-30T00:40:45.333Z,6.60
2019-01-30T00:43:15.390Z,3.00
2019-01-30T00:45:45.638Z,6.20
2019-01-30T00:48:15.423Z,3.80
2019-01-30T00:50:45.132Z,3.60
2019-01-30T00:53:15.096Z,4.00
2019-01-30T00:55:45.342Z,6.40
2019-01-30T00:58:15.018Z,7.40
2019-01-30T01:00:44.864Z,3.40
2019-01-30T01:03:15.194Z,3.80
2019-01-30T01:05:45.283Z,4.40
2019-01-30T01:08:15.109Z,4.80
2019-01-30T01:10:44.845Z,3.20
2019-01-30T01:13:14.758Z,3.40
2019-01-30T01:15:44.524Z,3.00
2019-01-30T01:18:14.485Z,5.80
2019-01-30T01:20:44.302Z,3.80
2019-01-30T01:23:14.082Z,5.20
2019-01-30T01:25:43.814Z,6.00
2019-01-30T01:28:13.444Z,0.00
2019-01-30T01:30:43.637Z,4.40
2019-01-30T01:33:13.369Z,3.00
2019-01-30T01:35:42.896Z,4.40
2019-01-30T01:38:12.586Z,4.00
2019-01-30T01:40:42.357Z,4.00
2019-01-30T01:43:12.508Z,4.80
2019-01-30T01:45:43.271Z,2.60
2019-01-30T01:48:13.230Z,4.40
2019-01-30T01:50:45.153Z,4.80
2019-01-30T01:53:14.865Z,6.20
2019-01-30T01:55:47.551Z,4.20
2019-01-30T01:58:17.242Z,6.00
2019-01-30T02:00:46.975Z,3.60
2019-01-30T02:03:16.694Z,6.20
2019-01-30T02:05:47.734Z,4.00
2019-01-30T02:08:17.473Z,3.20
2019-01-30T02:10:47.205Z,2.20
2019-01-30T02:13:17.577Z,4.80
2019-01-30T02:15:47.281Z,5.20
2019-01-30T02:18:17.087Z,6.00
2019-01-30T02:20:48.361Z,7.40
2019-01-30T02:23:18.669Z,7.00
2019-01-30T02:25:48.675Z,7.00
2019-01-30T02:28:18.912Z,4.40
2019-01-30T02:30:48.575Z,6.00
2019-01-30T02:33:18.766Z,0.40
2019-01-30T02:35:50.913Z,7.80
2019-01-30T02:38:20.616Z,4.00
2019-01-30T02:40:50.378Z,3.00
2019-01-30T02:43:20.547Z,2.60
2019-01-30T02:45:50.280Z,3.00
2019-01-30T02:48:19.897Z,6.80
2019-01-30T02:50:49.466Z,7.80
2019-01-30T02:53:19.350Z,4.00
2019-01-30T02:55:50.300Z,7.40
2019-01-30T02:58:19.832Z,7.00
2019-01-30T03:00:58.840Z,4.00
2019-01-30T03:03:21.408Z,4.80
2019-01-30T03:05:53.388Z,4.00
2019-01-30T03:08:23.242Z,3.00
2019-01-30T03:10:54.010Z,4.00
2019-01-30T03:13:23.847Z,3.00
2019-01-30T03:15:53.381Z,4.40
2019-01-30T03:18:23.330Z,4.40
2019-01-30T03:20:55.064Z,4.40
2019-01-30T03:23:24.695Z,6.00
2019-01-30T03:25:56.023Z,6.00
2019-01-30T03:28:26.277Z,3.00
2019-01-30T03:30:56.066Z,4.40
2019-01-30T03:33:26.099Z,3.20
2019-01-30T03:35:55.867Z,3.60
2019-01-30T03:38:25.697Z,4.80
2019-01-30T03:40:55.551Z,4.00
2019-01-30T03:43:25.758Z,3.20
2019-01-30T03:45:55.415Z,3.60
2019-01-30T03:48:25.031Z,4.80
2019-01-30T03:50:55.069Z,4.00
2019-01-30T03:53:25.023Z,7.20
2019-01-30T03:55:56.994Z,6.00
2019-01-30T03:58:28.061Z,3.60
2019-01-30T04:00:59.908Z,5.20
2019-01-30T04:03:30.948Z,1.80
2019-01-30T04:06:00.790Z,4.00
2019-01-30T04:08:30.679Z,4.00
2019-01-30T04:11:00.398Z,3.00
2019-01-30T04:13:30.005Z,3.00
2019-01-30T04:15:59.806Z,6.80
2019-01-30T04:18:30.438Z,3.00
2019-01-30T04:21:00.258Z,4.00
2019-01-30T04:23:30.162Z,3.60
2019-01-30T04:26:00.787Z,4.00
2019-01-30T04:28:30.601Z,3.00
2019-01-30T04:31:00.443Z,3.40
2019-01-30T04:33:30.157Z,4.00
2019-01-30T04:35:59.763Z,3.20
2019-01-30T04:38:29.656Z,3.40
2019-01-30T04:40:59.845Z,4.20
2019-01-30T04:43:29.630Z,4.00
2019-01-30T04:45:59.234Z,6.40
2019-01-30T04:48:28.749Z,3.80
2019-01-30T04:50:58.449Z,3.80
2019-01-30T04:53:28.283Z,5.60
2019-01-30T04:55:57.819Z,5.20
2019-01-30T04:58:30.530Z,3.00
2019-01-30T05:01:00.380Z,4.00
2019-01-30T05:03:30.635Z,1.00
2019-01-30T05:06:00.281Z,4.80
2019-01-30T05:08:30.048Z,3.40
2019-01-30T05:10:59.702Z,3.00
2019-01-30T05:13:29.668Z,3.00
2019-01-30T05:15:59.404Z,3.00
2019-01-30T05:18:31.071Z,0.20
2019-01-30T05:21:01.131Z,4.00
2019-01-30T05:23:30.899Z,3.00
2019-01-30T05:26:00.864Z,4.00
2019-01-30T05:28:32.219Z,7.60
2019-01-30T05:31:01.763Z,6.00
2019-01-30T05:33:33.664Z,4.00
2019-01-30T05:36:05.307Z,4.80
2019-01-30T05:38:35.087Z,3.00
2019-01-30T05:41:06.058Z,5.60
2019-01-30T05:43:35.989Z,6.40
2019-01-30T05:46:05.692Z,7.80
2019-01-30T05:48:35.772Z,4.00
2019-01-30T05:51:05.282Z,4.00
2019-01-30T05:53:35.269Z,6.00
2019-01-30T05:56:06.775Z,5.20
2019-01-30T05:58:36.337Z,4.00
2019-01-30T06:01:06.476Z,4.00
2019-01-30T06:03:36.118Z,6.00
2019-01-30T06:06:05.681Z,6.00
2019-01-30T06:08:35.158Z,6.80
2019-01-30T06:11:04.866Z,4.60
2019-01-30T06:13:34.462Z,3.00
2019-01-30T06:16:04.345Z,2.20
2019-01-30T06:18:34.518Z,2.80
2019-01-30T06:21:04.197Z,3.00
2019-01-30T06:23:35.110Z,5.20
2019-01-30T06:26:04.982Z,2.20
2019-01-30T06:28:34.870Z,3.00
2019-01-30T06:31:04.504Z,5.20
2019-01-30T06:33:34.157Z,5.20
2019-01-30T06:36:03.870Z,6.00
2019-01-30T06:38:33.626Z,5.20
2019-01-30T06:41:03.562Z,7.60
2019-01-30T06:43:33.406Z,5.60
2019-01-30T06:46:03.156Z,4.80
2019-01-30T06:48:34.209Z,7.40
2019-01-30T06:51:03.940Z,4.40
2019-01-30T06:53:33.451Z,4.40
2019-01-30T06:56:03.272Z,4.00
2019-01-30T06:58:32.805Z,3.80
2019-01-30T07:01:04.196Z,3.60
2019-01-30T07:03:34.699Z,4.00
2019-01-30T07:06:04.751Z,4.40
2019-01-30T07:08:34.844Z,7.00
2019-01-30T07:11:10.755Z,8.60
2019-01-30T07:13:36.488Z,6.60
2019-01-30T07:16:06.086Z,3.00
2019-01-30T07:18:37.000Z,7.40
2019-01-30T07:21:06.541Z,6.40
2019-01-30T07:23:36.288Z,9.00
2019-01-30T07:26:06.471Z,7.40
2019-01-30T07:28:36.016Z,6.40
2019-01-30T07:31:05.831Z,5.20
2019-01-30T07:33:35.673Z,5.60
2019-01-30T07:36:07.056Z,7.20
2019-01-30T07:38:36.540Z,6.00
2019-01-30T07:41:06.594Z,6.00
2019-01-30T07:43:36.114Z,9.60
2019-01-30T07:46:09.750Z,7.80
2019-01-30T07:48:39.387Z,6.20
2019-01-30T07:51:09.038Z,4.00
2019-01-30T07:53:39.174Z,6.00
2019-01-30T07:56:08.926Z,7.80
2019-01-30T07:58:38.990Z,6.60
2019-01-30T08:01:12.309Z,6.00
2019-01-30T08:03:42.231Z,6.80
2019-01-30T08:06:12.493Z,7.20
2019-01-30T08:08:42.149Z,9.60
2019-01-30T08:11:11.694Z,4.00
2019-01-30T08:13:41.410Z,8.40
2019-01-30T08:16:10.992Z,8.60
2019-01-30T08:18:41.718Z,8.20
2019-01-30T08:21:11.345Z,6.00
2019-01-30T08:23:41.440Z,4.80
2019-01-30T08:26:11.097Z,11.00
2019-01-30T08:28:40.922Z,7.00
2019-01-30T08:31:11.722Z,6.60
2019-01-30T08:33:41.458Z,3.60
2019-01-30T08:36:12.294Z,9.00
2019-01-30T08:38:42.854Z,8.20
2019-01-30T08:41:12.395Z,9.00
2019-01-30T08:43:41.903Z,7.80
2019-01-30T08:46:12.746Z,7.80
2019-01-30T08:48:42.269Z,6.40
2019-01-30T08:51:12.562Z,9.60
2019-01-30T08:53:42.247Z,8.60
2019-01-30T08:56:12.025Z,4.80
2019-01-30T08:58:41.685Z,9.00
2019-01-30T09:01:11.480Z,9.00
2019-01-30T09:03:41.216Z,7.00
2019-01-30T09:06:11.421Z,6.60
2019-01-30T09:08:41.248Z,6.40
2019-01-30T09:11:11.181Z,6.60
2019-01-30T09:13:40.942Z,5.80
2019-01-30T09:16:10.991Z,6.80
2019-01-30T09:18:40.452Z,8.60
2019-01-30T09:21:10.028Z,6.80
2019-01-30T09:23:39.580Z,7.00
2019-01-30T09:26:09.424Z,6.20
2019-01-30T09:28:39.624Z,9.40
2019-01-30T09:31:09.316Z,6.20
2019-01-30T09:33:41.387Z,5.60
2019-01-30T09:36:11.176Z,7.40
2019-01-30T09:38:40.934Z,6.80
2019-01-30T09:41:11.787Z,9.00
2019-01-30T09:43:43.399Z,11.40
2019-01-30T09:46:13.133Z,6.60
2019-01-30T09:48:44.310Z,6.00
2019-01-30T09:51:13.781Z,6.60
2019-01-30T09:53:43.837Z,8.40
2019-01-30T09:56:15.503Z,5.60
2019-01-30T09:58:44.640Z,4.00
2019-01-30T10:01:14.253Z,10.00
2019-01-30T10:03:55.141Z,4.80
2019-01-30T10:06:25.248Z,7.40
2019-01-30T10:08:55.202Z,8.20
2019-01-30T10:11:24.956Z,6.80
2019-01-30T10:13:54.709Z,6.60
2019-01-30T10:16:25.151Z,7.40
2019-01-30T10:18:58.613Z,5.20
2019-01-30T10:21:29.288Z,9.40
2019-01-30T10:23:58.955Z,7.40
2019-01-30T10:26:28.506Z,5.80
2019-01-30T10:28:58.160Z,6.60
2019-01-30T10:31:29.761Z,5.40
2019-01-30T10:33:59.264Z,6.80
2019-01-30T10:36:28.960Z,7.00
2019-01-30T10:38:59.001Z,8.20
2019-01-30T10:41:28.476Z,6.60
2019-01-30T10:43:57.950Z,7.00
2019-01-30T10:46:27.554Z,5.80
2019-01-30T10:48:57.597Z,6.00
2019-01-30T10:51:28.384Z,7.00
2019-01-30T10:53:58.276Z,7.80
2019-01-30T10:56:27.837Z,9.40
2019-01-30T10:58:57.299Z,6.20
2019-01-30T11:01:29.129Z,8.60
2019-01-30T11:03:59.308Z,9.20
2019-01-30T11:06:29.109Z,9.20
2019-01-30T11:08:59.148Z,7.80
2019-01-30T11:11:28.582Z,7.00
2019-01-30T11:13:58.349Z,6.40
2019-01-30T11:16:27.889Z,7.40
2019-01-30T11:18:57.552Z,13.40
2019-01-30T11:21:27.048Z,7.00
2019-01-30T11:23:56.615Z,6.60
2019-01-30T11:26:26.310Z,3.60
2019-01-30T11:28:55.826Z,8.20
2019-01-30T11:31:25.385Z,9.60
2019-01-30T11:33:55.034Z,1.40
2019-01-30T11:36:24.584Z,8.40
2019-01-30T11:38:55.016Z,4.80
2019-01-30T11:41:24.496Z,8.20
2019-01-30T11:43:56.694Z,9.00
2019-01-30T11:46:26.474Z,8.60
2019-01-30T11:48:56.741Z,3.40
2019-01-30T11:51:26.404Z,7.80
2019-01-30T11:53:56.021Z,5.80
2019-01-30T11:56:25.676Z,3.20
2019-01-30T11:58:59.525Z,12.40
2019-01-30T12:01:29.358Z,11.20
2019-01-30T12:04:01.893Z,9.20
2019-01-30T12:06:31.905Z,10.00
2019-01-30T12:09:01.447Z,7.00
2019-01-30T12:11:31.093Z,6.00
2019-01-30T12:14:01.312Z,9.60
2019-01-30T12:16:31.323Z,9.80
2019-01-30T12:19:01.210Z,12.40
2019-01-30T12:21:30.962Z,9.60
2019-01-30T12:24:03.676Z,11.60
2019-01-30T12:26:33.540Z,15.00
2019-01-30T12:29:03.110Z,10.00
2019-01-30T12:31:34.377Z,10.00
2019-01-30T12:34:03.929Z,10.00
2019-01-30T12:36:33.616Z,12.80
2019-01-30T12:39:05.278Z,15.60
2019-01-30T12:41:35.851Z,7.80
2019-01-30T12:44:05.677Z,11.60
2019-01-30T12:46:35.213Z,3.00
2019-01-30T12:49:05.351Z,7.00
2019-01-30T12:51:36.302Z,8.20
2019-01-30T12:54:05.821Z,13.00
2019-01-30T12:56:35.290Z,8.20
2019-01-30T12:59:05.156Z,14.60
2019-01-30T13:01:35.970Z,7.80
2019-01-30T13:04:08.445Z,12.20
2019-01-30T13:06:38.755Z,12.40
2019-01-30T13:09:10.627Z,8.60
2019-01-30T13:11:43.822Z,13.80
2019-01-30T13:14:13.618Z,10.80
2019-01-30T13:16:44.387Z,10.00
2019-01-30T13:19:13.885Z,12.20
2019-01-30T13:21:44.218Z,10.40
2019-01-30T13:24:14.063Z,14.40
2019-01-30T13:26:44.146Z,13.00
2019-01-30T13:29:13.733Z,11.40
2019-01-30T13:31:43.371Z,6.00
2019-01-30T13:34:13.017Z,12.80
2019-01-30T13:36:42.665Z,10.20
2019-01-30T13:39:12.749Z,10.40
2019-01-30T13:41:43.695Z,9.60
2019-01-30T13:44:23.801Z,10.20
2019-01-30T13:46:44.773Z,9.00
2019-01-30T13:49:14.981Z,12.00
2019-01-30T13:51:44.593Z,7.00
2019-01-30T13:54:19.855Z,7.00
2019-01-30T13:57:01.836Z,10.40
2019-01-30T13:59:43.315Z,12.40
2019-01-30T14:02:24.136Z,12.40
2019-01-30T14:04:59.373Z,12.00
2019-01-30T14:07:24.280Z,14.20
2019-01-30T14:09:56.430Z,14.20
2019-01-30T14:12:26.127Z,12.80
2019-01-30T14:14:56.092Z,10.60
2019-01-30T14:17:26.050Z,15.00
2019-01-30T14:19:59.184Z,11.60
2019-01-30T14:22:28.919Z,11.20
2019-01-30T14:24:58.517Z,10.60
2019-01-30T14:27:28.492Z,12.80
2019-01-30T14:29:59.655Z,17.20
2019-01-30T14:32:29.480Z,13.80
2019-01-30T14:35:10.151Z,12.00
2019-01-30T14:37:30.384Z,7.40
2019-01-30T14:40:02.974Z,9.20
2019-01-30T14:42:32.660Z,14.80
2019-01-30T14:45:02.272Z,12.20
2019-01-30T14:47:31.911Z,14.20
2019-01-30T14:50:01.644Z,12.00
2019-01-30T14:52:31.246Z,10.00
2019-01-30T14:55:03.450Z,13.40
2019-01-30T14:57:33.067Z,14.60
2019-01-30T15:00:02.988Z,12.40
2019-01-30T15:02:35.679Z,11.20
2019-01-30T15:05:06.461Z,10.00
2019-01-30T15:07:37.829Z,9.60
2019-01-30T15:10:10.103Z,12.20
2019-01-30T15:12:40.104Z,12.00
2019-01-30T15:15:12.513Z,12.00
2019-01-30T15:17:42.120Z,9.80
2019-01-30T15:20:15.394Z,11.40
2019-01-30T15:22:51.267Z,9.40
2019-01-30T15:25:21.927Z,11.40
2019-01-30T15:27:51.959Z,10.00
2019-01-30T15:30:32.016Z,11.20
2019-01-30T15:33:03.401Z,12.20
2019-01-30T15:35:34.045Z,11.80
2019-01-30T15:38:05.760Z,13.00
2019-01-30T15:40:37.148Z,17.00
2019-01-30T15:43:08.322Z,12.00
2019-01-30T15:45:38.019Z,13.80
2019-01-30T15:48:08.206Z,13.40
2019-01-30T15:50:38.669Z,13.40
2019-01-30T15:53:11.869Z,9.80
2019-01-30T15:55:42.154Z,12.20
2019-01-30T15:58:12.886Z,9.00
2019-01-30T16:00:49.476Z,12.80
2019-01-30T16:03:20.590Z,12.80
2019-01-30T16:05:50.715Z,9.40
2019-01-30T16:08:21.146Z,10.80
2019-01-30T16:10:50.840Z,12.40
2019-01-30T16:13:20.407Z,10.40
2019-01-30T16:15:56.137Z,7.80
2019-01-30T16:18:26.431Z,12.40
2019-01-30T16:20:57.254Z,13.40
2019-01-30T16:23:28.597Z,7.20
2019-01-30T16:25:59.592Z,12.60
2019-01-30T16:28:29.557Z,10.60
2019-01-30T16:30:59.149Z,7.00
2019-01-30T16:33:30.965Z,11.00
2019-01-30T16:36:03.817Z,16.00
2019-01-30T16:38:33.672Z,13.40
2019-01-30T16:41:06.308Z,12.20
2019-01-30T16:43:37.899Z,5.60
2019-01-30T16:46:07.551Z,7.00
2019-01-30T16:48:37.172Z,15.00
2019-01-30T16:51:06.850Z,12.00
2019-01-30T16:53:36.666Z,11.20
2019-01-30T16:56:06.498Z,10.40
2019-01-30T16:58:36.947Z,12.40
2019-01-30T17:01:06.637Z,14.80
2019-01-30T17:03:38.087Z,9.00
2019-01-30T17:06:08.183Z,9.00
2019-01-30T17:08:37.759Z,9.80
2019-01-30T17:11:07.498Z,18.00
2019-01-30T17:13:40.386Z,13.00
2019-01-30T17:16:10.017Z,12.60
2019-01-30T17:18:39.773Z,15.60
2019-01-30T17:21:09.363Z,19.60
2019-01-30T17:23:41.075Z,15.40
2019-01-30T17:26:11.179Z,16.00
2019-01-30T17:28:40.851Z,20.60
2019-01-30T17:31:20.027Z,24.60
2019-01-30T17:33:53.098Z,18.40
2019-01-30T17:36:22.869Z,23.20
2019-01-30T17:38:52.444Z,16.80
2019-01-30T17:41:24.882Z,20.20
2019-01-30T17:43:57.700Z,20.40
2019-01-30T17:46:28.070Z,22.20
2019-01-30T17:48:59.007Z,21.20
2019-01-30T17:51:29.450Z,21.00
2019-01-30T17:54:00.830Z,18.80
2019-01-30T17:56:30.707Z,23.00
2019-01-30T17:59:04.291Z,19.60
2019-01-30T18:01:34.171Z,18.60
2019-01-30T18:04:04.250Z,22.80
2019-01-30T18:06:38.829Z,22.80
2019-01-30T18:09:11.755Z,15.20
2019-01-30T18:11:41.502Z,16.60
2019-01-30T18:14:11.304Z,15.00
2019-01-30T18:16:41.351Z,21.20
2019-01-30T18:19:11.108Z,20.60
2019-01-30T18:21:43.665Z,12.80
2019-01-30T18:24:13.701Z,21.80
2019-01-30T18:26:46.714Z,14.80
2019-01-30T18:29:17.306Z,21.40
2019-01-30T18:31:47.670Z,19.80
2019-01-30T18:34:17.475Z,16.00
2019-01-30T18:36:47.246Z,20.20
2019-01-30T18:39:17.134Z,26.60
2019-01-30T18:41:48.212Z,24.00
2019-01-30T18:44:18.384Z,22.20
2019-01-30T18:46:50.893Z,23.60
2019-01-30T18:49:21.264Z,25.80
2019-01-30T18:51:52.121Z,25.80
2019-01-30T18:54:21.888Z,28.00
2019-01-30T18:56:52.368Z,23.40
2019-01-30T18:59:22.068Z,26.40
2019-01-30T19:01:51.683Z,25.20
2019-01-30T19:04:21.429Z,18.40
2019-01-30T19:06:54.668Z,19.80
2019-01-30T19:09:24.426Z,17.80
2019-01-30T19:11:54.435Z,29.60
2019-01-30T19:14:27.466Z,22.00
2019-01-30T19:16:57.108Z,22.80
2019-01-30T19:19:26.684Z,20.20
2019-01-30T19:21:58.220Z,26.60
2019-01-30T19:24:32.146Z,26.20
2019-01-30T19:26:59.281Z,21.40
2019-01-30T19:29:28.871Z,27.80
2019-01-30T19:32:00.847Z,24.40
2019-01-30T19:34:30.828Z,30.80
2019-01-30T19:37:03.623Z,29.00
2019-01-30T19:39:32.299Z,27.80
2019-01-30T19:42:04.959Z,18.00
2019-01-30T19:44:34.913Z,19.00
2019-01-30T19:47:04.797Z,15.00
2019-01-30T19:49:36.350Z,28.00
2019-01-30T19:52:06.200Z,21.40
2019-01-30T19:54:39.341Z,27.60
2019-01-30T19:57:18.355Z,26.60
2019-01-30T19:59:50.013Z,18.80
2019-01-30T20:02:20.694Z,27.80
2019-01-30T20:04:51.367Z,18.80
2019-01-30T20:07:21.136Z,24.80
2019-01-30T20:09:50.713Z,20.20
2019-01-30T20:12:20.234Z,18.80
2019-01-30T20:14:51.143Z,21.40
2019-01-30T20:17:25.553Z,20.60
2019-01-30T20:19:59.487Z,21.00
2019-01-30T20:22:29.509Z,20.00
2019-01-30T20:25:00.817Z,16.60
2019-01-30T20:27:31.688Z,20.60
2019-01-30T20:30:01.528Z,19.20
2019-01-30T20:32:32.378Z,22.40
2019-01-30T20:35:03.168Z,24.60
2019-01-30T20:37:37.765Z,17.60
2019-01-30T20:40:04.611Z,22.40
2019-01-30T20:42:36.006Z,21.40
2019-01-30T20:45:07.817Z,18.60
2019-01-30T20:47:37.356Z,23.00
2019-01-30T20:50:13.048Z,26.40
2019-01-30T20:52:46.472Z,18.40
2019-01-30T20:55:18.783Z,21.00
2019-01-30T20:57:56.620Z,18.40
2019-01-30T21:00:27.360Z,16.00
2019-01-30T21:02:56.950Z,18.20
2019-01-30T21:05:28.721Z,17.20
2019-01-30T21:07:58.684Z,18.80
2019-01-30T21:10:30.541Z,16.40
2019-01-30T21:13:00.381Z,15.60
2019-01-30T21:15:30.252Z,13.40
2019-01-30T21:18:03.301Z,15.60
2019-01-30T21:20:33.481Z,14.20
2019-01-30T21:23:07.088Z,15.20
2019-01-30T21:25:36.899Z,15.00
2019-01-30T21:28:07.349Z,13.80
2019-01-30T21:30:38.216Z,9.80
2019-01-30T21:33:11.873Z,12.00
2019-01-30T21:35:41.552Z,12.20
2019-01-30T21:38:11.330Z,11.20
2019-01-30T21:40:41.391Z,6.80
2019-01-30T21:43:11.117Z,9.60
2019-01-30T21:45:41.435Z,9.80
2019-01-30T21:48:11.149Z,12.40
2019-01-30T21:50:41.025Z,7.00
2019-01-30T21:53:11.145Z,7.00
2019-01-30T21:55:43.012Z,12.20
2019-01-30T21:58:12.976Z,8.60
2019-01-30T22:00:43.103Z,6.00
2019-01-30T22:03:12.932Z,7.00
2019-01-30T22:05:43.977Z,6.20
2019-01-30T22:08:13.798Z,8.20
2019-01-30T22:10:44.411Z,9.00
2019-01-30T22:13:16.874Z,9.20
2019-01-30T22:15:46.846Z,8.60
2019-01-30T22:18:16.822Z,8.60
2019-01-30T22:20:46.758Z,7.40
2019-01-30T22:23:18.319Z,9.20
2019-01-30T22:25:48.652Z,9.20
2019-01-30T22:28:18.506Z,11.80
2019-01-30T22:30:48.258Z,12.60
2019-01-30T22:33:17.823Z,12.80
2019-01-30T22:35:47.761Z,10.40
2019-01-30T22:38:17.750Z,14.60
2019-01-30T22:40:48.133Z,13.40
2019-01-30T22:43:17.944Z,17.20
2019-01-30T22:45:50.451Z,16.80
2019-01-30T22:48:19.550Z,15.00
2019-01-30T22:50:49.178Z,18.20
2019-01-30T22:53:21.517Z,20.60
2019-01-30T22:55:57.766Z,11.40
2019-01-30T22:58:27.968Z,16.20
2019-01-30T23:01:27.884Z,15.00
2019-01-30T23:04:25.025Z,19.00
2019-01-30T23:07:03.389Z,15.00
2019-01-30T23:10:15.459Z,19.00
2019-01-30T23:13:14.762Z,17.60
2019-01-30T23:15:55.982Z,13.00
2019-01-30T23:19:04.687Z,13.40
2019-01-30T23:21:51.136Z,21.00
2019-01-30T23:24:59.036Z,15.00
2019-01-30T23:28:03.599Z,14.20
2019-01-30T23:30:58.233Z,17.00
2019-01-30T23:34:30.541Z,13.60
2019-01-30T23:37:56.869Z,21.60
2019-01-30T23:40:42.286Z,14.60
2019-01-30T23:44:05.482Z,12.00
2019-01-30T23:47:04.040Z,12.80
2019-01-30T23:50:06.261Z,17.00
2019-01-30T23:53:13.037Z,10.60
2019-01-30T23:56:33.225Z,14.20
2019-01-30T23:59:31.108Z,15.80
